Terminal Aerodrome Forecast
Issued by NWS Columbia, SC

Home | Current Version | Previous Version | Text Only | Print | Product List | Glossary On
Versions: 1 2 3 4 5 6 7 8 9 10 11 12 13 14 15 16 17 18 19 20 21 22 23 24 25 26
233
FTUS42 KCAE 230634 AAA
TAFCAE
TAF AMD
KCAE 230634Z 2307/2406 32010G15KT P6SM BKN090
     FM230800 VRB05KT P6SM BKN090
     FM231200 07006KT P6SM OVC012
     FM231600 12006KT P6SM VCSH BKN035
     FM240000 14005KT 3SM SHRA VCTS OVC025CB WS015/15030KT=

USA.gov is the U.S. government's official web portal to all federal, state and local government web resources and services.